Погода Сморигина неделю

Витебская область, Белоруссия

24 - 30 мая
  • 24мая
    Сегодня
    +10°
    +24°
    Ясно и безоблачно
    ВремяПогодаТемператураВлажностьДавлениеВетер, м/сВероятность осадков
    00:00Ясно и безоблачно+15°C58 %759 мм1.6 м/с2 %
    03:00Ясно и безоблачно+13°C63 %760 мм1.6 м/с2 %
    06:00Ясно и безоблачно+12°C68 %761 мм1.7 м/с2 %
    09:00Ясно и безоблачно+18°C62 %761 мм2.6 м/с2 %
    12:00Ясно и безоблачно+22°C47 %761 мм3.1 м/с2 %
    15:00Ясно и безоблачно+24°C42 %761 мм2.9 м/с2 %
    18:00Ясно и безоблачно+23°C43 %760 мм2.8 м/с2 %
    21:00Ясно и безоблачно+19°C58 %760 мм1.7 м/с2 %
  • 25мая
    Суббота
    +11°
    +26°
    Практически безоблачно
    ВремяПогодаТемператураВлажностьДавлениеВетер, м/сВероятность осадков
    00:00Ясно и безоблачно+14°C61 %760 мм1.3 м/с2 %
    03:00Ясно и безоблачно+12°C68 %760 мм1.1 м/с2 %
    06:00Ясно и безоблачно+11°C73 %760 мм1.2 м/с2 %
    09:00Ясно и безоблачно+18°C62 %760 мм1.8 м/с2 %
    12:00Практически безоблачно+23°C49 %760 мм2.0 м/с2 %
    15:00Практически безоблачно+25°C44 %759 мм2.0 м/с2 %
    18:00Практически безоблачно+25°C43 %758 мм1.7 м/с2 %
    21:00Ясно и безоблачно+20°C70 %758 мм1.2 м/с2 %
  • 26мая
    Воскресенье
    +12°
    +26°
    Практически безоблачно
    ВремяПогодаТемператураВлажностьДавлениеВетер, м/сВероятность осадков
    00:00Ясно и безоблачно+16°C78 %758 мм0.7 м/с2 %
    03:00Ясно и безоблачно+14°C83 %758 мм0.4 м/с2 %
    06:00Ясно и безоблачно+14°C91 %758 мм0.5 м/с2 %
    09:00Ясно и безоблачно+20°C69 %759 мм0.7 м/с2 %
    12:00Ясно и безоблачно+24°C43 %759 мм1.1 м/с2 %
    15:00Практически безоблачно+26°C38 %758 мм1.3 м/с2 %
    18:00Небольшая облачность+26°C39 %758 мм1.5 м/с2 %
    21:00Ясно и безоблачно+21°C65 %758 мм0.9 м/с2 %
  • 27мая
    Понедельник
    +14°
    +27°
    Практически безоблачно
    ВремяПогодаТемператураВлажностьДавлениеВетер, м/сВероятность осадков
    00:00Ясно и безоблачно+16°C74 %758 мм0.9 м/с2 %
    03:00Ясно и безоблачно+14°C83 %758 мм0.6 м/с2 %
    06:00Ясно и безоблачно+14°C83 %758 мм0.8 м/с2 %
    09:00Ясно и безоблачно+20°C60 %759 мм1.3 м/с2 %
    12:00Практически безоблачно+25°C39 %758 мм2.0 м/с2 %
    15:00Практически безоблачно+27°C39 %758 мм1.9 м/с8 %
    18:00Практически безоблачно+26°C41 %757 мм1.8 м/с20 %
    21:00Ясно и безоблачно+22°C69 %757 мм1.0 м/с9 %
  • 28мая
    Вторник
    +14°
    +28°
    Практически безоблачно
    ВремяПогодаТемператураВлажностьДавлениеВетер, м/сВероятность осадков
    00:00Ясно и безоблачно+17°C80 %757 мм0.9 м/с2 %
    03:00Ясно и безоблачно+15°C91 %757 мм0.7 м/с2 %
    06:00Ясно и безоблачно+15°C92 %757 мм0.9 м/с2 %
    09:00Ясно и безоблачно+21°C68 %757 мм1.4 м/с2 %
    12:00Практически безоблачно+26°C52 %757 мм1.9 м/с11 %
    15:00Практически безоблачно+27°C49 %756 мм1.5 м/с20 %
    18:00Небольшая облачность, возможен дождь с грозой+26°C50 %755 мм1.9 м/с27 %
    21:00Практически безоблачно+22°C70 %755 мм0.7 м/с10 %
Мы используем cookies
Соглашаюсь